Gasburg, Virginia
Current Conditions -  °F | °C
As of 9:16 AM on Wednesday 28 Jan 2015 (Local Time) from KAVC Reporting Station
Clear Clear  
Wind Chill: -6°   Ceiling: Unl
Heat Index: -2°   Visibility: 10mi
Dew Point: -9°   Wind: 7mph
Humidity: 59%   Direction: 350°N
Pressure: 30.27"   Gusts: NA
Location:  36.58°N, 77.88°W
Report Text: KAVC 281416Z AUTO 35006KT 10SM CLR M02/M09 A3027 RMK AO2 T10191090
Loading
Personal Weather Stations






























Interactive Weather Map New forecast layout! Learn more

10-Day Weather Forecast

Advertisements
Track Severe Weather on mobile